createdAt,value
2017-10-09T00:01:53.356Z,6.30
2017-10-09T00:04:21.703Z,5.73
2017-10-09T00:06:49.239Z,5.80
2017-10-09T00:09:16.771Z,5.83
2017-10-09T00:11:44.326Z,5.50
2017-10-09T00:14:11.859Z,5.83
2017-10-09T00:16:39.391Z,5.50
2017-10-09T00:19:06.956Z,5.80
2017-10-09T00:21:34.491Z,5.30
2017-10-09T00:24:02.019Z,5.33
2017-10-09T00:26:29.598Z,5.83
2017-10-09T00:28:57.135Z,5.53
2017-10-09T00:31:25.440Z,5.17
2017-10-09T00:33:53.299Z,5.20
2017-10-09T00:36:20.830Z,5.30
2017-10-09T00:38:49.156Z,5.40
2017-10-09T00:41:16.715Z,5.80
2017-10-09T00:43:44.246Z,5.40
2017-10-09T00:46:11.778Z,5.07
2017-10-09T00:48:39.399Z,4.67
2017-10-09T00:51:06.939Z,5.27
2017-10-09T00:53:34.495Z,5.50
2017-10-09T00:56:02.079Z,5.13
2017-10-09T00:58:29.614Z,4.87
2017-10-09T01:00:57.150Z,5.10
2017-10-09T01:03:25.470Z,4.63
2017-10-09T01:05:53.011Z,4.80
2017-10-09T01:08:20.546Z,4.90
2017-10-09T01:10:48.900Z,5.50
2017-10-09T01:13:16.432Z,4.97
2017-10-09T01:15:43.968Z,5.23
2017-10-09T01:18:11.540Z,4.95
2017-10-09T01:20:39.847Z,5.00
2017-10-09T01:23:07.401Z,4.97
2017-10-09T01:25:34.973Z,4.97
2017-10-09T01:28:02.507Z,4.82
2017-10-09T01:30:30.047Z,4.80
2017-10-09T01:32:57.641Z,5.07
2017-10-09T01:35:25.551Z,4.40
2017-10-09T01:37:53.105Z,5.37
2017-10-09T01:40:21.431Z,4.90
2017-10-09T01:42:49.724Z,5.20
2017-10-09T01:45:17.257Z,5.17
2017-10-09T01:47:44.812Z,4.67
2017-10-09T01:50:12.347Z,5.23
2017-10-09T01:52:39.881Z,4.77
2017-10-09T01:55:07.488Z,4.80
2017-10-09T01:57:35.027Z,5.43
2017-10-09T02:00:02.564Z,4.50
2017-10-09T02:02:30.128Z,4.77
2017-10-09T02:04:57.660Z,5.10
2017-10-09T02:07:25.200Z,5.30
2017-10-09T02:09:52.764Z,4.87
2017-10-09T02:12:20.303Z,6.10
2017-10-09T02:14:47.835Z,5.40
2017-10-09T02:17:16.446Z,4.90
2017-10-09T02:19:43.983Z,5.03
2017-10-09T02:22:11.515Z,5.47
2017-10-09T02:24:39.087Z,5.70
2017-10-09T02:27:06.730Z,5.10
2017-10-09T02:29:34.270Z,4.97
2017-10-09T02:32:01.828Z,4.67
2017-10-09T02:34:29.359Z,5.00
2017-10-09T02:36:57.207Z,5.47
2017-10-09T02:39:24.798Z,4.80
2017-10-09T02:41:52.331Z,5.20
2017-10-09T02:44:19.855Z,5.07
2017-10-09T02:46:47.415Z,5.07
2017-10-09T02:49:16.405Z,5.47
2017-10-09T02:51:43.965Z,5.87
2017-10-09T02:54:11.519Z,5.65
2017-10-09T02:56:39.076Z,5.90
2017-10-09T02:59:06.649Z,5.00
2017-10-09T03:01:34.239Z,6.13
2017-10-09T03:04:02.539Z,5.57
2017-10-09T03:06:30.075Z,6.10
2017-10-09T03:08:58.411Z,6.47
2017-10-09T03:11:26.804Z,6.30
2017-10-09T03:13:54.339Z,7.03
2017-10-09T03:16:21.903Z,6.40
2017-10-09T03:18:49.435Z,6.10
2017-10-09T03:21:17.852Z,7.10
2017-10-09T03:27:08.693Z,7.07
2017-10-09T03:29:44.811Z,6.93
2017-10-09T03:32:12.343Z,7.53
2017-10-09T03:34:40.637Z,7.40
2017-10-09T03:37:08.231Z,7.47
2017-10-09T03:39:35.794Z,7.07
2017-10-09T03:42:03.327Z,7.70
2017-10-09T03:44:30.930Z,7.95
2017-10-09T03:46:58.456Z,8.38
2017-10-09T03:49:25.991Z,8.98
2017-10-09T03:51:53.546Z,8.80
2017-10-09T03:54:21.080Z,7.43
2017-10-09T03:56:48.629Z,8.33
2017-10-09T03:59:16.419Z,9.97
2017-10-09T04:01:43.983Z,8.70
2017-10-09T04:04:12.283Z,7.90
2017-10-09T04:06:39.871Z,8.23
2017-10-09T04:09:07.402Z,8.00
2017-10-09T04:11:34.939Z,8.33
2017-10-09T04:14:02.489Z,8.00
2017-10-09T04:16:30.799Z,8.13
2017-10-09T04:18:58.332Z,7.73
2017-10-09T04:21:26.656Z,8.10
2017-10-09T04:23:54.187Z,8.13
2017-10-09T04:26:21.727Z,8.20
2017-10-09T04:28:50.081Z,8.50
2017-10-09T04:31:17.616Z,8.10
2017-10-09T04:33:45.151Z,8.67
2017-10-09T04:36:12.728Z,8.30
2017-10-09T04:38:40.667Z,7.60
2017-10-09T04:41:08.210Z,9.67
2017-10-09T04:43:35.772Z,8.03
2017-10-09T04:46:03.310Z,9.70
2017-10-09T04:48:30.840Z,9.13
2017-10-09T04:50:58.434Z,9.13
2017-10-09T04:53:25.964Z,8.65
2017-10-09T04:55:53.499Z,9.30
2017-10-09T04:58:21.108Z,9.20
2017-10-09T05:00:48.633Z,9.10
2017-10-09T05:03:17.204Z,8.75
2017-10-09T05:05:44.758Z,8.83
2017-10-09T05:08:12.299Z,10.13
2017-10-09T05:10:39.827Z,9.47
2017-10-09T05:13:07.417Z,9.97
2017-10-09T05:15:35.724Z,10.30
2017-10-09T05:18:03.261Z,10.03
2017-10-09T05:20:31.587Z,9.80
2017-10-09T05:22:59.115Z,9.20
2017-10-09T05:25:26.651Z,10.67
2017-10-09T05:27:54.215Z,11.07
2017-10-09T05:30:22.517Z,10.63
2017-10-09T05:32:50.055Z,14.47
2017-10-09T05:35:18.411Z,12.20
2017-10-09T05:37:45.951Z,11.80
2017-10-09T05:40:15.698Z,13.25
2017-10-09T05:42:43.265Z,14.33
2017-10-09T05:45:11.572Z,14.37
2017-10-09T05:47:39.871Z,14.90
2017-10-09T05:50:07.435Z,15.83
2017-10-09T05:52:34.976Z,15.80
2017-10-09T05:55:02.519Z,17.33
2017-10-09T05:57:30.415Z,15.63
2017-10-09T05:59:57.954Z,15.20
2017-10-09T06:02:25.483Z,15.40
2017-10-09T06:04:53.039Z,13.80
2017-10-09T06:07:20.567Z,14.30
2017-10-09T06:09:48.099Z,14.20
2017-10-09T06:12:16.438Z,14.90
2017-10-09T06:14:44.739Z,14.43
2017-10-09T06:17:12.270Z,14.67
2017-10-09T06:19:40.894Z,15.10
2017-10-09T06:22:08.418Z,14.17
2017-10-09T06:24:36.834Z,15.30
2017-10-09T06:27:04.408Z,13.93
2017-10-09T06:29:31.951Z,13.40
2017-10-09T06:32:00.251Z,12.97
2017-10-09T06:34:27.807Z,12.00
2017-10-09T06:36:55.337Z,12.57
2017-10-09T06:39:22.871Z,11.60
2017-10-09T06:41:50.711Z,12.45
2017-10-09T06:44:18.243Z,11.37
2017-10-09T06:46:45.770Z,11.70
2017-10-09T06:49:15.450Z,11.12
2017-10-09T06:51:42.990Z,12.20
2017-10-09T06:54:10.531Z,11.60
2017-10-09T06:56:38.091Z,11.07
2017-10-09T06:59:05.624Z,10.33
2017-10-09T07:01:33.159Z,11.65
2017-10-09T07:04:00.738Z,12.60
2017-10-09T07:06:29.039Z,13.17
2017-10-09T07:08:56.570Z,12.60
2017-10-09T07:11:24.894Z,12.20
2017-10-09T07:13:52.435Z,11.70
2017-10-09T07:16:19.980Z,10.98
2017-10-09T07:18:47.548Z,12.37
2017-10-09T07:21:16.407Z,11.57
2017-10-09T07:23:43.939Z,10.67
2017-10-09T07:26:11.544Z,10.20
2017-10-09T07:28:39.083Z,10.47
2017-10-09T07:31:06.611Z,9.80
2017-10-09T07:33:34.166Z,9.13
2017-10-09T07:36:01.701Z,9.90
2017-10-09T07:38:29.243Z,10.10
2017-10-09T07:40:56.816Z,9.47
2017-10-09T07:43:24.744Z,9.70
2017-10-09T07:45:52.270Z,9.40
2017-10-09T07:48:19.856Z,8.32
2017-10-09T07:50:47.398Z,8.70
2017-10-09T07:53:16.499Z,9.02
2017-10-09T07:55:44.063Z,9.00
2017-10-09T07:58:11.591Z,8.90
2017-10-09T08:00:39.127Z,10.33
2017-10-09T08:03:06.687Z,7.90
2017-10-09T08:05:34.219Z,7.27
2017-10-09T08:08:02.524Z,8.07
2017-10-09T08:10:30.102Z,6.63
2017-10-09T08:12:57.634Z,7.47
2017-10-09T08:15:25.180Z,7.10
2017-10-09T08:17:52.743Z,6.83
2017-10-09T08:20:21.040Z,7.10
2017-10-09T08:22:48.573Z,6.50
2017-10-09T08:25:16.450Z,6.45
2017-10-09T08:27:43.975Z,7.67
2017-10-09T08:30:11.508Z,6.40
2017-10-09T08:32:39.096Z,6.10
2017-10-09T08:35:06.634Z,6.90
2017-10-09T08:37:34.163Z,6.60
2017-10-09T08:40:01.722Z,6.53
2017-10-09T08:42:29.242Z,6.57
2017-10-09T08:44:57.127Z,5.07
2017-10-09T08:47:25.471Z,4.30
2017-10-09T08:49:52.997Z,4.00
2017-10-09T08:52:20.524Z,4.12
2017-10-09T08:54:49.138Z,4.30
2017-10-09T08:57:16.662Z,5.50
2017-10-09T08:59:44.963Z,4.30
2017-10-09T09:02:12.537Z,4.78
2017-10-09T09:04:40.071Z,4.60
2017-10-09T09:07:07.656Z,4.40
2017-10-09T09:09:35.219Z,4.30
2017-10-09T09:12:02.747Z,4.30
2017-10-09T09:14:30.278Z,4.83
2017-10-09T09:16:57.874Z,4.90
2017-10-09T09:19:26.177Z,4.60
2017-10-09T09:21:54.479Z,6.17
2017-10-09T09:24:22.038Z,6.00
2017-10-09T09:26:49.567Z,6.57
2017-10-09T09:29:17.095Z,6.03
2017-10-09T09:31:44.651Z,6.00
2017-10-09T09:34:12.191Z,6.63
2017-10-09T09:36:39.713Z,6.27
2017-10-09T09:39:07.310Z,6.03
2017-10-09T09:41:34.835Z,5.97
2017-10-09T09:44:02.360Z,6.50
2017-10-09T09:46:30.823Z,5.50
2017-10-09T09:48:58.360Z,6.00
2017-10-09T09:51:25.898Z,6.30
2017-10-09T09:53:53.448Z,5.80
2017-10-09T09:56:20.980Z,5.87
2017-10-09T09:58:48.510Z,6.80
2017-10-09T10:01:16.427Z,6.37
2017-10-09T10:03:43.960Z,6.43
2017-10-09T10:06:11.488Z,6.65
2017-10-09T10:08:39.047Z,6.60
2017-10-09T10:11:06.567Z,6.30
2017-10-09T10:13:34.109Z,6.10
2017-10-09T10:16:02.437Z,6.87
2017-10-09T10:18:29.968Z,6.20
2017-10-09T10:20:57.491Z,6.97
2017-10-09T10:23:25.864Z,6.90
2017-10-09T10:25:53.404Z,7.20
2017-10-09T10:28:20.940Z,6.30
2017-10-09T10:30:48.522Z,6.45
2017-10-09T10:33:16.491Z,6.68
2017-10-09T10:35:44.016Z,6.67
2017-10-09T10:38:11.590Z,6.43
2017-10-09T10:40:39.883Z,7.00
2017-10-09T10:43:07.412Z,7.03
2017-10-09T10:45:35.003Z,6.70
2017-10-09T10:48:02.936Z,7.47
2017-10-09T10:50:30.477Z,7.68
2017-10-09T10:52:58.794Z,7.40
2017-10-09T10:55:26.319Z,7.27
2017-10-09T10:57:54.616Z,8.00
2017-10-09T11:00:22.175Z,7.80
2017-10-09T11:02:49.707Z,8.70
2017-10-09T11:05:17.243Z,7.23
2017-10-09T11:07:44.818Z,7.03
2017-10-09T11:10:14.035Z,7.90
2017-10-09T11:12:41.567Z,8.53
2017-10-09T11:15:09.127Z,8.40
2017-10-09T11:17:36.659Z,7.97
2017-10-09T11:20:04.194Z,8.13
2017-10-09T11:22:31.755Z,7.50
2017-10-09T11:24:59.289Z,8.20
2017-10-09T11:27:27.593Z,7.00
2017-10-09T11:29:55.183Z,6.83
2017-10-09T11:32:22.720Z,7.25
2017-10-09T11:34:50.264Z,8.00
2017-10-09T11:37:17.831Z,6.53
2017-10-09T11:39:45.368Z,7.32
2017-10-09T11:42:24.447Z,7.60
2017-10-09T11:48:54.804Z,7.73
2017-10-09T11:51:22.336Z,7.47
2017-10-09T11:53:49.874Z,7.50
2017-10-09T11:56:17.433Z,7.10
2017-10-09T11:58:44.959Z,7.70
2017-10-09T12:01:12.478Z,7.83
2017-10-09T12:03:40.031Z,7.20
2017-10-09T12:06:07.560Z,7.23
2017-10-09T12:08:35.852Z,7.90
2017-10-09T12:11:03.436Z,8.00
2017-10-09T12:13:30.966Z,6.57
2017-10-09T12:15:58.506Z,7.80
2017-10-09T12:18:26.074Z,7.83
2017-10-09T12:20:54.379Z,8.25
2017-10-09T12:23:21.911Z,8.67
2017-10-09T12:25:50.239Z,8.65
2017-10-09T12:28:17.768Z,8.17
2017-10-09T12:30:45.307Z,8.37
2017-10-09T12:33:24.370Z,7.60
2017-10-09T12:45:01.932Z,8.87
2017-10-09T12:47:29.462Z,8.00
2017-10-09T12:49:57.435Z,8.70
2017-10-09T12:52:25.016Z,9.10
2017-10-09T12:54:52.563Z,8.80
2017-10-09T12:57:20.096Z,8.82
2017-10-09T12:59:49.269Z,9.40
2017-10-09T13:02:16.807Z,8.73
2017-10-09T13:04:44.349Z,9.03
2017-10-09T13:07:11.972Z,9.30
2017-10-09T13:09:39.544Z,10.27
2017-10-09T13:12:07.083Z,9.37
2017-10-09T13:14:34.704Z,12.43
2017-10-09T13:17:02.428Z,13.07
2017-10-09T13:19:29.990Z,13.40
2017-10-09T13:21:57.574Z,10.70
2017-10-09T13:24:25.132Z,9.50
2017-10-09T13:26:52.681Z,8.30
2017-10-09T13:29:20.287Z,8.70
2017-10-09T13:31:48.011Z,9.57
2017-10-09T13:34:17.218Z,9.85
2017-10-09T13:36:45.623Z,11.43
2017-10-09T13:39:24.968Z,13.18
2017-10-09T13:44:50.381Z,11.73
2017-10-09T13:47:28.128Z,12.80
2017-10-09T13:49:55.737Z,12.30
2017-10-09T13:52:23.310Z,12.52
2017-10-09T13:54:50.862Z,12.33
2017-10-09T13:57:18.491Z,12.20
2017-10-09T13:59:46.059Z,13.10
2017-10-09T14:02:25.096Z,12.53
2017-10-09T14:10:42.699Z,13.10
2017-10-09T14:13:14.800Z,12.18
2017-10-09T14:15:43.191Z,12.40
2017-10-09T14:18:10.741Z,12.60
2017-10-09T14:20:38.323Z,12.83
2017-10-09T14:23:05.919Z,12.80
2017-10-09T14:25:33.594Z,12.20
2017-10-09T14:28:01.992Z,14.20
2017-10-09T14:30:30.343Z,14.32
2017-10-09T14:40:21.281Z,9.47
2017-10-09T14:42:48.828Z,10.10
2017-10-09T14:45:17.277Z,10.77
2017-10-09T14:47:45.637Z,10.07
2017-10-09T14:50:15.394Z,10.48
2017-10-09T14:52:44.093Z,9.17
2017-10-09T14:55:12.114Z,9.40
2017-10-09T14:57:39.768Z,9.30
2017-10-09T15:00:12.130Z,10.32
2017-10-09T15:02:39.667Z,10.52
2017-10-09T15:05:07.195Z,10.93
2017-10-09T15:07:34.760Z,11.27
2017-10-09T15:10:02.300Z,11.20
2017-10-09T15:12:30.651Z,11.63
2017-10-09T15:14:58.224Z,10.20
2017-10-09T15:17:25.755Z,11.97
2017-10-09T15:19:53.295Z,12.10
2017-10-09T15:22:21.115Z,13.00
2017-10-09T15:24:49.119Z,12.77
2017-10-09T15:27:16.663Z,12.10
2017-10-09T15:29:44.236Z,12.93
2017-10-09T15:32:11.816Z,16.90
2017-10-09T15:34:39.358Z,15.47
2017-10-09T15:37:06.948Z,15.10
2017-10-09T15:39:34.487Z,17.03
2017-10-09T15:42:02.304Z,12.83
2017-10-09T15:44:35.248Z,15.38
2017-10-09T15:47:03.522Z,37.47
2017-10-09T15:49:31.966Z,21.97
2017-10-09T15:51:59.958Z,13.18
2017-10-09T15:54:29.327Z,13.00
2017-10-09T15:56:56.886Z,10.13
2017-10-09T15:59:25.216Z,12.35
2017-10-09T16:01:52.751Z,10.33
2017-10-09T16:04:20.601Z,9.80
2017-10-09T16:06:48.252Z,10.30
2017-10-09T16:09:16.520Z,11.65
2017-10-09T16:11:44.902Z,12.70
2017-10-09T16:14:12.490Z,10.52
2017-10-09T16:16:40.268Z,10.03
2017-10-09T16:19:07.903Z,10.30
2017-10-09T16:21:35.467Z,11.57
2017-10-09T16:24:03.004Z,11.00
2017-10-09T16:26:31.311Z,12.53
2017-10-09T16:28:58.943Z,11.43
2017-10-09T16:31:27.275Z,11.02
2017-10-09T16:33:54.807Z,11.53
2017-10-09T16:36:22.381Z,10.37
2017-10-09T16:38:49.943Z,9.63
2017-10-09T16:41:17.475Z,9.70
2017-10-09T16:43:45.795Z,10.30
2017-10-09T16:46:15.379Z,10.68
2017-10-09T16:48:42.910Z,11.90
2017-10-09T16:51:10.493Z,13.20
2017-10-09T16:53:38.027Z,12.30
2017-10-09T16:56:06.827Z,14.50
2017-10-09T16:58:35.176Z,16.80
2017-10-09T17:01:02.721Z,15.68
2017-10-09T17:03:30.251Z,16.67
2017-10-09T17:05:57.812Z,14.07
2017-10-09T17:08:25.393Z,13.38
2017-10-09T17:10:53.240Z,15.70
2017-10-09T17:13:20.820Z,14.73
2017-10-09T17:15:48.394Z,12.90
2017-10-09T17:18:16.556Z,13.20
2017-10-09T17:20:44.211Z,15.63
2017-10-09T17:23:11.786Z,19.73
2017-10-09T17:25:39.515Z,15.67
2017-10-09T17:28:07.659Z,13.13
2017-10-09T17:30:35.220Z,12.80
2017-10-09T17:33:02.756Z,12.80
2017-10-09T17:35:31.044Z,12.23
2017-10-09T17:38:00.991Z,13.03
2017-10-09T17:40:28.542Z,13.75
2017-10-09T17:42:56.114Z,14.43
2017-10-09T17:45:23.655Z,14.03
2017-10-09T17:47:51.963Z,13.67
2017-10-09T17:50:19.535Z,14.35
2017-10-09T17:52:49.384Z,14.40
2017-10-09T17:55:16.928Z,14.73
2017-10-09T17:57:44.551Z,14.18
2017-10-09T18:00:12.160Z,12.93
2017-10-09T18:02:39.691Z,14.50
2017-10-09T18:05:07.259Z,14.23
2017-10-09T18:07:34.791Z,15.50
2017-10-09T18:10:02.329Z,14.33
2017-10-09T18:12:30.682Z,14.63
2017-10-09T18:14:58.220Z,14.90
2017-10-09T18:17:26.084Z,14.37
2017-10-09T18:19:53.687Z,15.50
2017-10-09T18:22:22.001Z,15.33
2017-10-09T18:24:49.560Z,16.33
2017-10-09T18:27:17.129Z,15.60
2017-10-09T18:29:44.709Z,15.80
2017-10-09T18:32:12.312Z,15.80
2017-10-09T18:34:41.011Z,15.63
2017-10-09T18:37:08.572Z,15.40
2017-10-09T18:39:36.359Z,15.20
2017-10-09T18:42:03.968Z,12.87
2017-10-09T18:44:32.319Z,12.47
2017-10-09T18:46:59.860Z,13.33
2017-10-09T18:49:27.508Z,13.37
2017-10-09T18:51:55.048Z,14.33
2017-10-09T18:54:22.587Z,12.47
2017-10-09T18:56:50.171Z,12.80
2017-10-09T18:59:18.184Z,14.00
2017-10-09T19:01:45.907Z,13.17
2017-10-09T19:04:24.703Z,14.20
2017-10-09T19:09:34.370Z,12.43
2017-10-09T19:12:01.906Z,12.37
2017-10-09T19:14:29.434Z,14.25
2017-10-09T19:16:57.004Z,12.37
2017-10-09T19:19:24.555Z,12.55
2017-10-09T19:21:52.092Z,13.43
2017-10-09T19:24:19.816Z,13.68
2017-10-09T19:26:47.489Z,15.00
2017-10-09T19:29:16.426Z,14.30
2017-10-09T19:31:43.986Z,14.13
2017-10-09T19:34:11.527Z,14.57
2017-10-09T19:36:39.096Z,15.37
2017-10-09T19:39:06.707Z,15.53
2017-10-09T19:41:34.315Z,15.40
2017-10-09T19:44:01.996Z,15.40
2017-10-09T19:46:29.594Z,15.77
2017-10-09T19:48:57.213Z,19.60
2017-10-09T19:51:24.801Z,14.27
2017-10-09T19:53:52.365Z,12.70
2017-10-09T19:56:19.910Z,12.85
2017-10-09T19:58:47.448Z,12.88
2017-10-09T20:01:16.427Z,12.70
2017-10-09T20:03:43.964Z,12.90
2017-10-09T20:06:11.705Z,12.93
2017-10-09T20:08:39.356Z,12.90
2017-10-09T20:11:06.890Z,13.37
2017-10-09T20:13:34.519Z,16.33
2017-10-09T20:16:02.124Z,14.70
2017-10-09T20:18:29.721Z,12.60
2017-10-09T20:20:57.322Z,15.77
2017-10-09T20:23:24.884Z,15.33
2017-10-09T20:25:52.527Z,14.77
2017-10-09T20:28:20.824Z,15.90
2017-10-09T20:30:48.556Z,14.63
2017-10-09T20:33:16.592Z,11.80
2017-10-09T20:35:44.265Z,10.80
2017-10-09T20:38:11.841Z,12.00
2017-10-09T20:40:41.081Z,12.80
2017-10-09T20:43:10.275Z,13.60
2017-10-09T20:45:38.757Z,13.97
2017-10-09T20:48:06.328Z,13.77
2017-10-09T20:50:33.961Z,14.13
2017-10-09T20:53:01.567Z,13.73
2017-10-09T20:55:29.327Z,12.87
2017-10-09T20:57:56.875Z,13.07
2017-10-09T21:00:24.433Z,12.70
2017-10-09T21:02:52.295Z,13.10
2017-10-09T21:05:19.831Z,13.50
2017-10-09T21:07:47.391Z,12.73
2017-10-09T21:10:16.874Z,13.50
2017-10-09T21:12:45.225Z,12.75
2017-10-09T21:15:13.876Z,12.70
2017-10-09T21:17:41.457Z,12.77
2017-10-09T21:20:09.075Z,12.70
2017-10-09T21:22:37.457Z,13.07
2017-10-09T21:25:05.015Z,11.97
2017-10-09T21:27:32.559Z,12.90
2017-10-09T21:30:00.252Z,15.10
2017-10-09T21:32:27.842Z,12.93
2017-10-09T21:34:55.376Z,12.07
2017-10-09T21:37:22.984Z,10.63
2017-10-09T21:39:50.515Z,12.30
2017-10-09T21:42:18.047Z,10.43
2017-10-09T21:44:46.516Z,9.67
2017-10-09T21:47:15.506Z,10.18
2017-10-09T21:49:43.829Z,9.77
2017-10-09T21:52:12.263Z,9.10
2017-10-09T21:54:40.591Z,10.07
2017-10-09T21:57:08.148Z,10.07
2017-10-09T21:59:35.727Z,9.97
2017-10-09T22:02:03.260Z,9.50
2017-10-09T22:04:31.535Z,8.80
2017-10-09T22:07:00.129Z,7.70
2017-10-09T22:09:27.731Z,9.37
2017-10-09T22:11:56.107Z,9.07
2017-10-09T22:14:23.733Z,9.00
2017-10-09T22:16:51.255Z,8.57
2017-10-09T22:19:19.545Z,8.97
2017-10-09T22:21:47.147Z,8.20
2017-10-09T22:24:16.443Z,8.40
2017-10-09T22:26:43.967Z,7.83
2017-10-09T22:29:11.520Z,7.77
2017-10-09T22:31:39.035Z,8.03
2017-10-09T22:34:06.562Z,7.40
2017-10-09T22:36:34.117Z,8.20
2017-10-09T22:39:01.636Z,7.63
2017-10-09T22:41:29.167Z,7.60
2017-10-09T22:43:56.742Z,7.87
2017-10-09T22:46:24.267Z,6.70
2017-10-09T22:48:51.796Z,6.80
2017-10-09T22:51:19.363Z,6.80
2017-10-09T22:53:46.899Z,7.00
2017-10-09T22:56:15.540Z,6.37
2017-10-09T22:58:43.094Z,6.87
2017-10-09T23:01:10.632Z,6.47
2017-10-09T23:03:38.155Z,6.40
2017-10-09T23:06:06.030Z,6.53
2017-10-09T23:08:34.331Z,6.93
2017-10-09T23:11:01.864Z,6.67
2017-10-09T23:13:30.183Z,7.45
2017-10-09T23:15:57.714Z,6.60
2017-10-09T23:18:26.012Z,7.00
2017-10-09T23:20:53.558Z,6.30
2017-10-09T23:23:21.092Z,5.83
2017-10-09T23:25:48.620Z,6.63
2017-10-09T23:28:16.523Z,6.40
2017-10-09T23:30:44.819Z,5.90
2017-10-09T23:33:12.352Z,6.45
2017-10-09T23:35:39.908Z,5.90
2017-10-09T23:38:07.435Z,6.10
2017-10-09T23:40:34.961Z,6.30
2017-10-09T23:43:02.519Z,5.40
2017-10-09T23:45:30.042Z,5.80
2017-10-09T23:47:57.563Z,6.13
2017-10-09T23:50:25.183Z,5.87
2017-10-09T23:52:53.560Z,7.30
2017-10-09T23:55:21.857Z,6.70
2017-10-09T23:57:49.422Z,5.50
